Time;durP1;ratioP1;P1;durP2;ratioP2;P2;SDS_P1;SDS_P2;PMS_P1;PMS_P2;Temp;Humidity;BMP_temperature;BMP_pressure;BME280_temperature;BME280_humidity;BME280_pressure;Samples;Min_cycle;Max_cycle;Signal;HPM_P1;HPM_P2
2021/07/28 00:02:07;;;;;;;20.63;12.70;;;16.10;99.90;;;;;;5081361;28;20187;-64
2021/07/28 00:04:37;;;;;;;18.57;13.23;;;16.00;99.90;;;;;;5080715;28;20176;-64
2021/07/28 00:07:09;;;;;;;20.07;13.07;;;16.00;99.90;;;;;;5080361;28;20180;-64
2021/07/28 00:09:38;;;;;;;22.13;13.63;;;16.10;99.90;;;;;;5078338;28;20191;-64
2021/07/28 00:12:07;;;;;;;23.00;13.43;;;16.10;99.90;;;;;;5077814;28;20453;-64
2021/07/28 00:14:36;;;;;;;19.97;13.30;;;16.10;99.90;;;;;;5079401;28;20184;-65
2021/07/28 00:17:07;;;;;;;21.87;13.70;;;16.20;99.90;;;;;;5080516;28;20181;-64
2021/07/28 00:19:48;;;;;;;20.70;13.53;;;16.20;99.90;;;;;;5081689;28;20180;-64
2021/07/28 00:25:04;;;;;;;17.53;12.73;;;16.30;99.90;;;;;;5078249;28;20234;-64
2021/07/28 00:27:35;;;;;;;24.53;13.37;;;16.30;99.90;;;;;;5082277;28;20179;-64
2021/07/28 00:30:07;;;;;;;17.07;12.63;;;16.30;99.90;;;;;;5079760;28;20177;-64
2021/07/28 00:32:36;;;;;;;20.23;13.73;;;16.40;99.90;;;;;;5081392;28;20185;-64
2021/07/28 00:35:05;;;;;;;21.17;13.13;;;16.40;99.90;;;;;;5076089;28;20188;-64
2021/07/28 00:37:35;;;;;;;20.77;13.40;;;16.40;99.90;;;;;;5078884;28;20177;-64
2021/07/28 00:40:05;;;;;;;20.43;13.03;;;16.40;99.90;;;;;;5080343;28;20204;-64
2021/07/28 00:42:33;;;;;;;22.83;12.97;;;16.40;99.90;;;;;;5075456;28;20262;-64
2021/07/28 00:45:02;;;;;;;20.23;12.87;;;16.40;99.90;;;;;;5079796;28;20181;-64
2021/07/28 00:47:33;;;;;;;23.47;12.80;;;16.30;99.90;;;;;;5077167;28;20176;-64
2021/07/28 00:50:04;;;;;;;21.50;12.63;;;16.40;99.90;;;;;;5078352;28;20195;-64
2021/07/28 00:52:38;;;;;;;22.77;13.77;;;16.40;99.90;;;;;;5078754;28;20188;-64
2021/07/28 00:55:08;;;;;;;22.10;13.67;;;16.40;99.90;;;;;;5084508;28;20469;-64
2021/07/28 00:57:37;;;;;;;18.50;12.50;;;16.40;99.90;;;;;;5072344;28;20184;-64
2021/07/28 01:00:06;;;;;;;22.73;13.70;;;16.40;99.90;;;;;;5078831;28;20195;-64
2021/07/28 01:02:34;;;;;;;26.63;13.47;;;16.30;99.90;;;;;;5076905;28;20182;-64
2021/07/28 01:05:06;;;;;;;23.73;13.17;;;16.30;99.90;;;;;;5078088;28;20204;-65
2021/07/28 01:07:36;;;;;;;21.67;13.97;;;16.30;99.90;;;;;;5077151;28;20213;-64
2021/07/28 01:10:05;;;;;;;20.27;13.37;;;16.30;99.90;;;;;;5079317;28;20186;-64
2021/07/28 01:12:34;;;;;;;22.27;13.40;;;16.40;99.90;;;;;;5080577;28;20374;-64
2021/07/28 01:15:02;;;;;;;21.83;13.40;;;16.30;99.90;;;;;;5078459;28;20428;-64
2021/07/28 01:17:32;;;;;;;20.53;13.73;;;16.40;99.90;;;;;;5074967;28;20220;-64
2021/07/28 01:20:06;;;;;;;17.27;12.90;;;16.40;99.90;;;;;;5079749;28;20345;-64
2021/07/28 01:22:36;;;;;;;21.40;13.47;;;16.40;99.90;;;;;;5078227;28;20196;-64
2021/07/28 01:25:07;;;;;;;22.83;14.60;;;16.40;99.90;;;;;;5079334;28;20221;-64
2021/07/28 01:27:36;;;;;;;29.50;14.73;;;16.40;99.90;;;;;;5077838;28;20390;-65
2021/07/28 01:30:05;;;;;;;22.97;14.23;;;16.40;99.90;;;;;;5078327;28;20192;-64
2021/07/28 01:32:36;;;;;;;26.70;14.33;;;16.40;99.90;;;;;;5085009;28;20418;-64
2021/07/28 01:35:07;;;;;;;22.80;14.17;;;16.50;99.90;;;;;;5079097;28;20318;-64
2021/07/28 01:37:36;;;;;;;24.90;15.13;;;16.50;99.90;;;;;;5076566;28;20194;-64
2021/07/28 01:40:06;;;;;;;27.37;14.37;;;16.50;99.90;;;;;;5110482;28;20181;-64
2021/07/28 01:42:40;;;;;;;24.87;15.20;;;16.60;99.90;;;;;;5074362;28;20193;-65
2021/07/28 01:45:10;;;;;;;22.40;14.20;;;16.60;99.90;;;;;;5071699;28;20330;-64
2021/07/28 01:47:38;;;;;;;24.00;14.13;;;16.70;99.90;;;;;;5079753;28;20246;-64
2021/07/28 01:50:08;;;;;;;22.60;13.57;;;16.70;99.90;;;;;;5076187;28;20189;-64
2021/07/28 01:52:36;;;;;;;20.87;13.90;;;16.70;99.90;;;;;;5080356;28;20240;-64
2021/07/28 01:55:08;;;;;;;23.67;14.67;;;16.70;99.90;;;;;;5080576;28;20261;-64
2021/07/28 01:57:53;;;;;;;24.73;14.73;;;16.80;99.90;;;;;;5078607;28;20415;-64
2021/07/28 02:00:22;;;;;;;23.03;14.33;;;16.80;99.90;;;;;;5076277;28;20334;-64
2021/07/28 02:02:51;;;;;;;21.73;13.97;;;16.90;99.90;;;;;;5072220;28;20188;-64
2021/07/28 02:05:19;;;;;;;20.03;13.67;;;16.90;99.90;;;;;;5077411;28;20255;-64
2021/07/28 02:07:48;;;;;;;28.67;14.83;;;16.90;99.90;;;;;;5077024;28;20223;-64
2021/07/28 02:10:18;;;;;;;22.23;14.20;;;16.90;99.90;;;;;;5077133;28;20222;-64
2021/07/28 02:12:46;;;;;;;18.43;13.87;;;16.90;99.90;;;;;;5079727;28;20337;-64
2021/07/28 02:15:16;;;;;;;21.33;15.00;;;16.90;99.90;;;;;;5077047;28;20473;-64
2021/07/28 02:17:44;;;;;;;21.20;14.70;;;17.00;99.90;;;;;;5079489;28;20223;-64
2021/07/28 02:20:14;;;;;;;25.87;15.03;;;17.00;99.90;;;;;;5075581;28;20189;-64
2021/07/28 02:22:42;;;;;;;24.80;14.63;;;17.00;99.90;;;;;;5078965;28;20180;-64
2021/07/28 02:25:12;;;;;;;23.17;14.57;;;17.00;99.90;;;;;;5077201;28;20545;-64
2021/07/28 02:27:42;;;;;;;24.73;15.47;;;17.00;99.90;;;;;;5074811;28;20206;-64
2021/07/28 02:30:12;;;;;;;23.93;14.60;;;17.00;99.90;;;;;;5076150;28;20189;-65
2021/07/28 02:32:40;;;;;;;22.73;14.63;;;17.00;99.90;;;;;;5075237;28;20334;-64
2021/07/28 02:35:09;;;;;;;23.23;16.07;;;17.00;99.90;;;;;;5080146;28;20183;-64
2021/07/28 02:37:40;;;;;;;24.27;15.13;;;17.00;99.90;;;;;;5077840;28;20310;-65
2021/07/28 02:40:10;;;;;;;19.37;14.20;;;17.00;99.90;;;;;;5110525;28;20185;-64
2021/07/28 02:42:38;;;;;;;22.43;14.63;;;16.90;99.90;;;;;;5078699;28;20203;-64
2021/07/28 02:45:09;;;;;;;22.53;15.17;;;16.80;99.90;;;;;;5077379;28;20264;-64
2021/07/28 02:47:37;;;;;;;21.83;14.17;;;16.80;99.90;;;;;;5079813;28;20252;-64
2021/07/28 02:50:07;;;;;;;22.13;14.30;;;16.70;99.90;;;;;;5079953;28;20195;-64
2021/07/28 02:52:35;;;;;;;20.67;14.43;;;16.70;99.90;;;;;;5078045;28;20617;-64
2021/07/28 02:55:05;;;;;;;19.97;13.87;;;16.60;99.90;;;;;;5078272;28;20223;-64
2021/07/28 02:57:34;;;;;;;19.57;14.10;;;16.50;99.90;;;;;;5082093;28;20401;-64
2021/07/28 03:00:03;;;;;;;17.50;13.37;;;16.40;99.90;;;;;;5081024;28;20200;-64
2021/07/28 03:02:33;;;;;;;21.03;13.67;;;16.40;99.90;;;;;;5079330;28;20269;-64
2021/07/28 03:05:01;;;;;;;19.63;14.23;;;16.30;99.90;;;;;;5080663;28;20201;-64
2021/07/28 03:07:33;;;;;;;17.63;13.87;;;16.30;99.90;;;;;;5084936;28;20197;-64
2021/07/28 03:10:02;;;;;;;19.67;13.37;;;16.20;99.90;;;;;;5081541;28;20184;-64
2021/07/28 03:12:30;;;;;;;19.67;12.53;;;16.20;99.90;;;;;;5078277;28;20452;-64
2021/07/28 03:14:58;;;;;;;20.30;12.60;;;16.20;99.90;;;;;;5078869;28;20207;-64
2021/07/28 03:17:27;;;;;;;17.30;12.13;;;16.20;99.90;;;;;;5079107;28;20344;-64
2021/07/28 03:19:57;;;;;;;15.10;11.17;;;16.20;99.90;;;;;;5081249;28;20318;-64
2021/07/28 03:22:26;;;;;;;27.90;12.03;;;16.20;99.90;;;;;;5082636;28;20186;-64
2021/07/28 03:24:55;;;;;;;16.03;11.80;;;16.30;99.90;;;;;;5078049;28;20184;-64
2021/07/28 03:27:26;;;;;;;14.83;11.20;;;16.30;99.90;;;;;;5079202;28;20255;-64
2021/07/28 03:29:55;;;;;;;13.23;11.07;;;16.30;99.90;;;;;;5079859;28;20185;-64
2021/07/28 03:32:23;;;;;;;19.63;10.93;;;16.30;99.90;;;;;;5082344;28;20199;-64
2021/07/28 03:34:51;;;;;;;14.60;10.43;;;16.30;99.90;;;;;;5079552;28;20254;-65
2021/07/28 03:37:21;;;;;;;17.87;11.97;;;16.30;99.90;;;;;;5077860;28;20199;-64
2021/07/28 03:40:00;;;;;;;15.60;11.67;;;16.20;99.90;;;;;;5083855;28;20181;-64
2021/07/28 03:42:29;;;;;;;16.93;12.97;;;16.20;99.90;;;;;;5077387;28;20185;-65
2021/07/28 03:44:57;;;;;;;20.50;12.93;;;16.20;99.90;;;;;;5075653;28;20263;-64
2021/07/28 03:47:26;;;;;;;18.03;12.20;;;16.20;99.90;;;;;;5079594;28;20208;-64
2021/07/28 03:49:55;;;;;;;17.10;12.50;;;16.20;99.90;;;;;;5080803;28;20185;-64
2021/07/28 03:52:24;;;;;;;21.03;12.43;;;16.20;99.90;;;;;;5082564;28;20237;-64
2021/07/28 03:54:53;;;;;;;23.43;13.60;;;16.20;99.90;;;;;;5080496;28;20265;-64
2021/07/28 03:57:21;;;;;;;23.30;14.13;;;16.10;99.90;;;;;;5079631;28;20302;-64
2021/07/28 03:59:49;;;;;;;20.93;13.13;;;16.10;99.90;;;;;;5078722;28;20179;-64
2021/07/28 04:02:18;;;;;;;21.57;14.57;;;16.00;99.90;;;;;;5078426;28;20200;-64
2021/07/28 04:04:46;;;;;;;24.07;13.67;;;16.00;99.90;;;;;;5079801;28;20456;-64
2021/07/28 04:07:15;;;;;;;18.73;13.27;;;16.00;99.90;;;;;;5081900;28;20207;-65
2021/07/28 04:09:44;;;;;;;17.23;12.40;;;16.00;99.90;;;;;;5076030;28;20424;-64
2021/07/28 04:12:13;;;;;;;18.83;12.30;;;15.90;99.90;;;;;;5080494;28;20329;-64
2021/07/28 04:14:41;;;;;;;18.80;11.60;;;15.90;99.90;;;;;;5080534;28;20184;-64
2021/07/28 04:17:09;;;;;;;16.33;12.63;;;15.90;99.90;;;;;;5080702;28;20172;-64
2021/07/28 04:19:38;;;;;;;15.67;12.40;;;15.80;99.90;;;;;;5081052;28;20195;-64
2021/07/28 04:22:06;;;;;;;17.93;10.97;;;15.80;99.90;;;;;;5076048;28;20193;-65
2021/07/28 04:24:34;;;;;;;18.80;10.80;;;15.80;99.90;;;;;;5082373;28;20180;-64
2021/07/28 04:27:05;;;;;;;17.77;11.03;;;15.80;99.90;;;;;;5079789;28;20252;-65
2021/07/28 04:29:33;;;;;;;15.57;10.77;;;15.80;99.90;;;;;;5077609;28;20213;-64
2021/07/28 04:32:02;;;;;;;15.40;9.67;;;15.80;99.90;;;;;;5079338;28;20180;-65
2021/07/28 04:34:30;;;;;;;13.77;9.20;;;15.80;99.90;;;;;;5079813;28;20311;-65
2021/07/28 04:36:59;;;;;;;12.00;8.90;;;15.80;99.90;;;;;;5081895;28;20188;-64
2021/07/28 04:39:27;;;;;;;10.77;7.50;;;15.80;99.90;;;;;;5114637;28;20172;-64
2021/07/28 04:41:55;;;;;;;14.27;8.23;;;15.80;99.90;;;;;;5079029;28;20201;-64
2021/07/28 04:44:25;;;;;;;11.90;7.00;;;15.80;99.90;;;;;;5109091;28;20184;-64
2021/07/28 04:46:55;;;;;;;10.57;7.10;;;15.80;99.90;;;;;;5079673;28;20180;-64
2021/07/28 04:49:24;;;;;;;11.93;6.50;;;15.80;99.90;;;;;;5094623;28;20199;-64
2021/07/28 04:51:52;;;;;;;12.40;6.60;;;15.80;99.90;;;;;;5080365;28;20185;-64
2021/07/28 04:54:20;;;;;;;11.37;6.57;;;15.80;99.90;;;;;;5077272;28;20488;-64
2021/07/28 04:56:49;;;;;;;15.63;6.60;;;15.70;99.90;;;;;;5078034;28;20188;-64
2021/07/28 04:59:17;;;;;;;10.97;6.17;;;15.70;99.90;;;;;;5073487;28;20685;-64
2021/07/28 05:01:47;;;;;;;12.60;6.23;;;15.80;99.90;;;;;;5080953;28;20176;-65
2021/07/28 05:04:15;;;;;;;11.37;6.17;;;15.80;99.90;;;;;;5077038;28;20208;-64
2021/07/28 05:06:43;;;;;;;12.07;6.03;;;15.80;99.90;;;;;;5078718;28;20184;-64
2021/07/28 05:09:15;;;;;;;13.47;5.90;;;15.80;99.90;;;;;;5077406;28;20222;-64
2021/07/28 05:11:44;;;;;;;7.00;5.30;;;15.90;99.90;;;;;;5078473;28;20180;-64
2021/07/28 05:14:12;;;;;;;9.47;5.13;;;15.90;99.90;;;;;;5074754;28;20536;-64
2021/07/28 05:16:41;;;;;;;6.70;5.60;;;16.00;99.90;;;;;;5075682;28;20572;-64
2021/07/28 05:19:11;;;;;;;6.77;5.10;;;16.10;99.90;;;;;;5074581;28;20177;-64
2021/07/28 05:21:39;;;;;;;7.73;5.40;;;16.10;99.90;;;;;;5077659;28;20419;-65
2021/07/28 05:24:07;;;;;;;9.70;5.00;;;16.20;99.90;;;;;;5091662;28;20176;-64
2021/07/28 05:26:36;;;;;;;8.53;4.87;;;16.20;99.90;;;;;;5077651;28;20177;-64
2021/07/28 05:29:05;;;;;;;12.30;5.13;;;16.20;99.90;;;;;;5075099;28;20367;-64
2021/07/28 05:31:33;;;;;;;8.33;4.60;;;16.30;99.90;;;;;;5081501;28;20180;-64
2021/07/28 05:34:02;;;;;;;9.97;4.93;;;16.30;99.90;;;;;;5079575;28;20430;-63
2021/07/28 05:36:31;;;;;;;8.80;4.60;;;16.40;99.90;;;;;;5080042;28;20438;-64
2021/07/28 05:39:00;;;;;;;8.87;4.93;;;16.40;99.90;;;;;;5073898;28;21707;-64
2021/07/28 05:41:28;;;;;;;8.17;4.70;;;16.40;99.90;;;;;;5079655;28;20176;-64
2021/07/28 05:43:56;;;;;;;6.17;4.70;;;16.50;99.90;;;;;;5080239;28;20225;-64
2021/07/28 05:46:24;;;;;;;9.03;4.37;;;16.60;99.90;;;;;;5080857;28;20307;-64
2021/07/28 05:48:53;;;;;;;10.23;5.13;;;16.70;99.90;;;;;;5073575;28;20197;-64
2021/07/28 05:51:21;;;;;;;9.37;5.33;;;16.70;99.90;;;;;;5075085;28;20192;-64
2021/07/28 05:53:51;;;;;;;10.33;5.27;;;16.70;99.90;;;;;;5078905;28;20260;-64
2021/07/28 05:56:19;;;;;;;9.13;4.90;;;16.80;99.90;;;;;;5077613;28;20218;-64
2021/07/28 05:58:47;;;;;;;15.50;4.90;;;16.80;99.90;;;;;;5076215;28;20174;-64
2021/07/28 06:01:16;;;;;;;8.20;4.60;;;16.90;99.90;;;;;;5091542;28;20187;-64
2021/07/28 06:03:44;;;;;;;6.63;4.63;;;17.10;99.90;;;;;;5078628;28;20845;-64
2021/07/28 06:06:13;;;;;;;7.70;4.60;;;17.10;99.90;;;;;;5077870;28;20190;-64
2021/07/28 06:08:43;;;;;;;6.60;4.87;;;17.10;99.90;;;;;;5074924;28;20214;-64
2021/07/28 06:11:13;;;;;;;7.37;4.67;;;17.20;99.90;;;;;;5078610;28;20192;-64
2021/07/28 06:13:41;;;;;;;8.97;4.73;;;17.50;99.90;;;;;;5093464;28;20180;-64
2021/07/28 06:16:10;;;;;;;8.60;5.13;;;17.40;99.90;;;;;;5089962;28;20194;-64
2021/07/28 06:18:38;;;;;;;8.13;5.00;;;17.30;99.90;;;;;;5078581;28;20174;-64
2021/07/28 06:21:07;;;;;;;5.40;4.60;;;17.30;99.90;;;;;;5080350;28;20180;-64
2021/07/28 06:23:35;;;;;;;9.87;4.57;;;17.20;99.90;;;;;;5077980;28;20187;-64
2021/07/28 06:26:04;;;;;;;8.43;4.80;;;17.30;99.90;;;;;;5077273;28;20179;-64
2021/07/28 06:28:33;;;;;;;9.90;4.40;;;17.40;99.90;;;;;;5082345;28;20285;-64
2021/07/28 06:31:02;;;;;;;8.57;4.93;;;17.40;99.90;;;;;;5082110;28;20180;-64
2021/07/28 06:33:30;;;;;;;7.20;4.60;;;17.50;99.90;;;;;;5075565;28;20185;-64
2021/07/28 06:35:59;;;;;;;8.93;4.40;;;17.50;99.90;;;;;;5069387;28;20193;-64
2021/07/28 06:38:27;;;;;;;13.67;5.23;;;17.50;99.90;;;;;;5079266;28;20188;-64
2021/07/28 06:40:55;;;;;;;6.40;5.00;;;17.40;99.90;;;;;;5081053;28;20216;-64
2021/07/28 06:43:24;;;;;;;5.47;4.93;;;17.60;99.90;;;;;;5082288;28;20425;-64
2021/07/28 06:45:59;;;;;;;8.57;4.70;;;17.80;99.90;;;;;;5095218;28;20194;-64
2021/07/28 06:48:28;;;;;;;13.73;4.90;;;18.00;99.90;;;;;;5079417;28;20425;-64
2021/07/28 06:50:56;;;;;;;9.90;4.47;;;18.30;99.90;;;;;;5082415;28;20176;-64
2021/07/28 06:53:25;;;;;;;8.53;4.40;;;18.50;99.90;;;;;;5082318;28;20204;-65
2021/07/28 06:55:53;;;;;;;10.00;4.67;;;18.50;99.90;;;;;;5077327;28;20230;-64
2021/07/28 06:58:21;;;;;;;8.27;4.30;;;18.30;99.90;;;;;;5077003;28;20180;-64
2021/07/28 07:00:50;;;;;;;7.40;4.40;;;18.40;99.90;;;;;;5076807;28;20363;-64
2021/07/28 07:03:21;;;;;;;8.80;4.50;;;18.60;99.90;;;;;;5089851;28;20229;-64
2021/07/28 07:05:50;;;;;;;6.73;4.67;;;18.80;99.90;;;;;;5076721;28;20234;-65
2021/07/28 07:08:19;;;;;;;7.63;4.20;;;19.00;99.90;;;;;;5086993;28;20586;-64
2021/07/28 07:10:47;;;;;;;5.10;4.23;;;19.00;99.90;;;;;;5078789;28;20204;-64
2021/07/28 07:13:15;;;;;;;5.00;4.27;;;19.00;99.90;;;;;;5090812;28;20474;-64
2021/07/28 07:15:44;;;;;;;5.07;4.37;;;19.10;99.90;;;;;;5075585;28;20180;-64
2021/07/28 07:18:12;;;;;;;7.70;4.40;;;19.10;99.90;;;;;;5080160;28;20416;-65
2021/07/28 07:20:42;;;;;;;5.00;4.50;;;19.00;99.90;;;;;;5077610;28;20417;-64
2021/07/28 07:23:11;;;;;;;8.00;4.63;;;18.80;99.90;;;;;;5074205;28;20180;-64
2021/07/28 07:25:40;;;;;;;9.13;4.33;;;18.70;99.90;;;;;;5076229;28;20188;-64
2021/07/28 07:28:08;;;;;;;6.80;4.13;;;18.80;99.90;;;;;;5077787;28;20175;-64
2021/07/28 07:30:36;;;;;;;6.80;4.30;;;18.80;99.90;;;;;;5075473;28;20245;-64
2021/07/28 07:35:52;;;;;;;8.40;4.27;;;18.70;99.90;;;;;;5081147;28;20179;-64
2021/07/28 07:38:21;;;;;;;7.23;3.93;;;18.60;99.90;;;;;;5079930;28;20255;-65
2021/07/28 07:40:49;;;;;;;10.40;4.43;;;18.60;99.90;;;;;;5067460;28;20204;-64
2021/07/28 07:43:17;;;;;;;4.90;3.80;;;18.80;99.90;;;;;;5081089;28;20184;-64
2021/07/28 07:45:46;;;;;;;5.33;3.97;;;19.20;99.90;;;;;;5080838;28;20180;-64
2021/07/28 07:48:14;;;;;;;5.50;3.90;;;19.60;99.90;;;;;;5082050;28;20188;-63
2021/07/28 07:50:42;;;;;;;4.90;3.73;;;19.80;99.90;;;;;;5112696;28;20196;-64
2021/07/28 07:53:12;;;;;;;9.07;4.10;;;19.80;99.90;;;;;;5078340;28;20180;-64
2021/07/28 07:55:40;;;;;;;5.60;3.73;;;19.70;99.90;;;;;;5078106;28;20212;-64
2021/07/28 07:58:09;;;;;;;4.20;3.13;;;19.70;99.90;;;;;;5080099;28;20429;-64
2021/07/28 08:00:38;;;;;;;4.23;3.57;;;19.80;99.90;;;;;;5081791;28;20360;-64
2021/07/28 08:03:06;;;;;;;5.13;3.50;;;20.00;99.90;;;;;;5080451;28;20202;-64
2021/07/28 08:05:35;;;;;;;5.40;3.70;;;20.30;99.90;;;;;;5079170;28;20176;-64
2021/07/28 08:08:04;;;;;;;10.17;3.80;;;20.90;99.90;;;;;;5080805;28;20422;-64
2021/07/28 08:10:34;;;;;;;5.57;3.63;;;20.70;99.90;;;;;;5081825;28;20196;-65
2021/07/28 08:13:02;;;;;;;7.43;3.70;;;20.70;99.90;;;;;;5078724;28;20183;-64
2021/07/28 08:15:31;;;;;;;6.13;3.43;;;20.60;99.90;;;;;;5080114;28;20248;-65
2021/07/28 08:18:00;;;;;;;5.33;3.20;;;20.40;99.90;;;;;;5076354;28;20425;-64
2021/07/28 08:20:31;;;;;;;7.10;3.03;;;20.50;99.90;;;;;;5090317;28;20238;-65
2021/07/28 08:22:59;;;;;;;4.60;2.90;;;21.30;99.90;;;;;;5077178;28;20188;-65
2021/07/28 08:25:27;;;;;;;7.07;3.27;;;21.60;99.90;;;;;;5079454;28;20188;-64
2021/07/28 08:27:57;;;;;;;9.23;3.37;;;21.20;99.90;;;;;;5078467;28;20433;-64
2021/07/28 08:30:28;;;;;;;6.27;3.27;;;20.80;99.90;;;;;;5110842;28;20228;-64
2021/07/28 08:32:56;;;;;;;7.30;3.63;;;20.70;99.90;;;;;;5079331;28;20176;-64
2021/07/28 08:35:25;;;;;;;12.27;3.63;;;20.60;99.90;;;;;;5085414;28;21340;-64
2021/07/28 08:37:56;;;;;;;5.70;3.20;;;20.50;99.90;;;;;;5077474;28;20185;-64
2021/07/28 08:40:25;;;;;;;4.77;3.40;;;20.20;99.90;;;;;;5088882;28;20426;-64
2021/07/28 08:42:55;;;;;;;4.07;3.63;;;20.00;99.90;;;;;;5075608;28;20192;-65
2021/07/28 08:45:24;;;;;;;5.87;3.50;;;19.80;99.90;;;;;;5079358;28;20184;-65
2021/07/28 08:47:53;;;;;;;7.27;3.60;;;19.70;99.90;;;;;;5079107;28;20319;-64
2021/07/28 08:50:21;;;;;;;10.47;3.77;;;19.60;99.90;;;;;;5079605;28;20220;-65
2021/07/28 08:52:52;;;;;;;5.47;3.50;;;19.40;99.90;;;;;;5094455;28;20384;-65
2021/07/28 08:55:22;;;;;;;4.30;3.83;;;19.50;99.90;;;;;;5112120;28;20219;-65
2021/07/28 08:57:50;;;;;;;5.87;3.70;;;20.40;99.90;;;;;;5078283;28;20202;-64
2021/07/28 09:00:19;;;;;;;4.90;3.10;;;21.10;99.90;;;;;;5079344;28;20172;-65
2021/07/28 09:02:52;;;;;;;4.03;3.63;;;21.80;99.90;;;;;;5079621;28;20438;-65
2021/07/28 09:05:20;;;;;;;6.03;3.30;;;22.20;99.90;;;;;;5078676;28;20243;-65
2021/07/28 09:07:55;;;;;;;5.33;3.63;;;22.40;99.90;;;;;;5082085;28;20211;-65
2021/07/28 09:10:24;;;;;;;6.20;3.40;;;22.10;99.90;;;;;;5079917;28;20213;-65
2021/07/28 09:12:55;;;;;;;7.30;3.13;;;21.80;99.90;;;;;;5105910;28;20445;-65
2021/07/28 09:15:36;;;;;;;3.60;3.23;;;21.80;99.90;;;;;;5079950;28;20644;-65
2021/07/28 09:18:32;;;;;;;7.07;3.80;;;21.70;99.90;;;;;;5078872;28;20188;-64
2021/07/28 09:21:01;;;;;;;5.87;3.87;;;21.50;99.90;;;;;;5079282;28;20386;-65
2021/07/28 09:23:34;;;;;;;5.40;3.40;;;21.70;99.90;;;;;;5091392;28;20355;-65
2021/07/28 09:26:06;;;;;;;6.13;3.37;;;21.60;99.90;;;;;;5079119;28;20184;-64
2021/07/28 09:28:34;;;;;;;4.97;3.23;;;21.80;99.90;;;;;;5078249;28;20180;-65
2021/07/28 09:31:03;;;;;;;10.60;3.70;;;22.00;99.90;;;;;;5077765;28;20258;-65
2021/07/28 09:33:32;;;;;;;4.57;3.40;;;22.20;99.90;;;;;;5087508;28;20185;-65
2021/07/28 09:36:22;;;;;;;3.53;3.23;;;22.10;99.90;;;;;;5078219;28;20430;-65
2021/07/28 09:38:50;;;;;;;6.17;3.40;;;21.30;99.90;;;;;;5078385;28;20184;-65
2021/07/28 09:41:25;;;;;;;7.57;3.40;;;21.10;99.90;;;;;;5078595;28;20179;-65
2021/07/28 09:43:56;;;;;;;4.30;3.70;;;20.70;99.90;;;;;;5076684;28;20210;-65
2021/07/28 09:46:27;;;;;;;3.50;3.20;;;20.70;99.90;;;;;;5077840;28;20180;-64
2021/07/28 09:48:58;;;;;;;4.47;3.20;;;20.60;99.90;;;;;;5074886;28;20226;-65
2021/07/28 09:51:29;;;;;;;4.17;3.77;;;20.60;99.90;;;;;;5074488;28;20208;-65
2021/07/28 09:53:59;;;;;;;4.17;3.60;;;20.40;99.90;;;;;;5077949;28;20186;-65
2021/07/28 09:56:30;;;;;;;4.30;3.33;;;20.50;99.90;;;;;;5076159;28;20175;-65
2021/07/28 09:58:59;;;;;;;6.00;3.50;;;21.00;99.90;;;;;;5080740;28;20199;-65
2021/07/28 10:01:28;;;;;;;5.33;3.60;;;21.00;99.90;;;;;;5091641;28;20180;-65
2021/07/28 10:04:01;;;;;;;3.80;3.50;;;21.20;99.90;;;;;;5078671;28;20176;-65
2021/07/28 10:06:39;;;;;;;6.00;3.43;;;21.20;99.90;;;;;;5078538;28;20430;-65
2021/07/28 10:09:10;;;;;;;4.00;3.40;;;21.50;99.90;;;;;;5078852;28;20455;-65
2021/07/28 10:11:42;;;;;;;6.03;3.53;;;21.70;99.90;;;;;;5075484;28;20196;-65
2021/07/28 10:14:11;;;;;;;4.27;3.30;;;21.40;99.90;;;;;;5081417;28;20184;-65
2021/07/28 10:16:40;;;;;;;6.30;3.40;;;21.20;99.90;;;;;;5094900;28;20188;-65
2021/07/28 10:19:10;;;;;;;3.73;3.13;;;21.10;99.90;;;;;;5076538;28;20194;-65
2021/07/28 10:21:46;;;;;;;5.00;3.73;;;20.80;99.90;;;;;;5076248;28;20176;-65
2021/07/28 10:24:14;;;;;;;6.87;3.63;;;20.50;99.90;;;;;;5077314;28;20242;-65
2021/07/28 10:26:45;;;;;;;3.57;3.27;;;20.20;99.90;;;;;;5081931;28;20176;-65
2021/07/28 10:29:16;;;;;;;6.43;3.70;;;20.00;99.90;;;;;;5078337;28;20180;-65
2021/07/28 10:31:46;;;;;;;3.43;3.13;;;20.30;99.90;;;;;;5076155;28;20246;-65
2021/07/28 10:34:24;;;;;;;4.07;3.30;;;21.10;99.90;;;;;;5079765;28;20374;-65
2021/07/28 10:36:53;;;;;;;3.23;2.93;;;21.60;99.90;;;;;;5101966;28;20385;-65
2021/07/28 10:39:44;;;;;;;4.60;3.30;;;21.50;99.90;;;;;;5075123;28;20188;-65
2021/07/28 10:42:14;;;;;;;10.33;3.20;;;21.20;99.90;;;;;;5079321;28;20203;-65
2021/07/28 10:45:04;;;;;;;5.10;3.00;;;20.90;99.90;;;;;;5078624;28;20176;-64
2021/07/28 10:47:37;;;;;;;3.03;2.87;;;20.50;99.90;;;;;;5084870;28;20169;-64
2021/07/28 10:50:08;;;;;;;3.83;2.87;;;20.20;99.90;;;;;;5081312;28;20306;-65
2021/07/28 10:52:44;;;;;;;3.50;3.10;;;19.90;99.90;;;;;;5079759;28;20429;-65
2021/07/28 10:55:20;;;;;;;6.43;3.70;;;19.80;99.90;;;;;;5079183;28;20227;-65
2021/07/28 10:58:23;;;;;;;4.17;3.47;;;19.90;99.90;;;;;;5077307;28;20192;-65
2021/07/28 11:00:58;;;;;;;4.90;3.20;;;20.10;99.90;;;;;;5081177;28;20182;-65
2021/07/28 11:03:33;;;;;;;4.07;3.50;;;20.10;99.90;;;;;;5074151;28;20176;-65
2021/07/28 11:06:20;;;;;;;5.70;3.47;;;20.30;99.90;;;;;;5092422;28;20535;-65
2021/07/28 11:08:49;;;;;;;5.83;3.20;;;20.60;99.90;;;;;;5081577;28;20445;-65
2021/07/28 11:11:27;;;;;;;3.90;3.53;;;20.70;99.90;;;;;;5082193;28;20245;-65
2021/07/28 11:14:00;;;;;;;8.67;4.00;;;20.60;99.90;;;;;;5094967;28;20210;-65
2021/07/28 11:16:29;;;;;;;8.17;3.83;;;20.30;99.90;;;;;;5081011;28;20172;-65
2021/07/28 11:18:57;;;;;;;9.93;4.30;;;19.40;99.90;;;;;;5080030;28;20456;-64
2021/07/28 11:21:29;;;;;;;4.40;3.90;;;19.10;99.90;;;;;;5085361;28;20333;-65
2021/07/28 11:24:03;;;;;;;6.77;3.67;;;18.90;99.90;;;;;;5085413;28;20180;-65
2021/07/28 11:26:34;;;;;;;4.30;3.93;;;18.80;99.90;;;;;;5085811;28;20183;-65
2021/07/28 11:29:06;;;;;;;5.43;4.23;;;18.80;99.90;;;;;;5084560;28;20363;-65
2021/07/28 11:31:37;;;;;;;4.73;4.17;;;18.70;99.90;;;;;;5085355;28;20207;-64
2021/07/28 11:34:09;;;;;;;5.17;3.80;;;18.70;99.90;;;;;;5078508;28;20180;-64
2021/07/28 11:36:40;;;;;;;9.63;4.30;;;18.70;99.90;;;;;;5078525;28;20183;-65
2021/07/28 11:39:16;;;;;;;4.43;4.03;;;18.70;99.90;;;;;;5079472;28;20226;-65
2021/07/28 11:41:46;;;;;;;4.40;3.20;;;18.90;99.90;;;;;;5080216;28;20184;-65
2021/07/28 11:44:15;;;;;;;5.90;3.10;;;19.20;99.90;;;;;;5084687;28;20348;-65
2021/07/28 11:46:52;;;;;;;4.10;3.27;;;19.90;99.90;;;;;;5085057;28;20176;-64
2021/07/28 11:49:25;;;;;;;3.37;3.07;;;20.20;99.90;;;;;;5085227;28;20180;-65
2021/07/28 11:52:00;;;;;;;3.20;2.80;;;20.20;99.90;;;;;;5078056;28;20191;-65
2021/07/28 11:54:33;;;;;;;6.33;2.90;;;20.00;99.90;;;;;;5082243;28;20212;-64
2021/07/28 11:57:03;;;;;;;2.43;2.30;;;19.90;99.90;;;;;;5080019;28;20180;-64
2021/07/28 11:59:34;;;;;;;1.90;1.87;;;20.20;99.90;;;;;;5081033;28;20271;-65
2021/07/28 12:02:04;;;;;;;2.73;2.10;;;20.30;99.90;;;;;;5079686;28;20420;-64
2021/07/28 12:04:35;;;;;;;1.90;1.90;;;20.20;99.90;;;;;;5078632;28;20177;-65
2021/07/28 12:07:13;;;;;;;2.23;2.07;;;20.40;99.90;;;;;;5094355;28;20187;-65
2021/07/28 12:09:42;;;;;;;2.07;1.97;;;20.60;99.90;;;;;;5081386;28;20180;-65
2021/07/28 12:12:20;;;;;;;2.43;1.87;;;21.00;99.90;;;;;;5081591;28;20204;-64
2021/07/28 12:14:49;;;;;;;2.10;1.60;;;21.40;99.90;;;;;;5080217;28;20172;-65
2021/07/28 12:17:25;;;;;;;3.63;1.60;;;21.70;99.90;;;;;;5080907;28;20193;-65
2021/07/28 12:19:58;;;;;;;2.67;1.67;;;22.00;99.90;;;;;;5081794;28;20226;-64
2021/07/28 12:22:32;;;;;;;3.13;1.70;;;21.60;99.90;;;;;;5082041;28;20187;-64
2021/07/28 12:25:19;;;;;;;1.80;1.70;;;21.30;99.90;;;;;;5079536;28;20449;-64
2021/07/28 12:28:01;;;;;;;2.60;1.90;;;21.00;99.90;;;;;;5080429;28;20208;-65
2021/07/28 12:30:32;;;;;;;1.90;1.60;;;21.30;99.90;;;;;;5082142;28;20200;-65
2021/07/28 12:33:09;;;;;;;1.80;1.70;;;21.70;99.90;;;;;;5081985;28;20207;-64
2021/07/28 12:35:49;;;;;;;2.03;1.90;;;21.80;99.90;;;;;;5081391;28;20186;-64
2021/07/28 12:38:21;;;;;;;1.80;1.70;;;21.90;99.90;;;;;;5079642;28;20186;-65
2021/07/28 12:40:55;;;;;;;2.00;1.90;;;21.70;99.90;;;;;;5076714;28;20456;-65
2021/07/28 12:43:24;;;;;;;2.60;2.00;;;21.40;99.90;;;;;;5077265;28;20211;-65
2021/07/28 12:45:54;;;;;;;2.27;1.87;;;21.20;99.90;;;;;;5082180;28;20188;-65
2021/07/28 12:48:22;;;;;;;2.03;1.83;;;21.40;99.90;;;;;;5082052;28;20249;-64
2021/07/28 12:50:51;;;;;;;1.90;1.80;;;21.30;99.90;;;;;;5078696;28;20184;-64
2021/07/28 12:53:21;;;;;;;4.60;2.20;;;21.30;99.90;;;;;;5078569;28;20198;-64
2021/07/28 12:55:49;;;;;;;2.40;1.97;;;21.20;99.90;;;;;;5080180;28;20212;-65
2021/07/28 12:58:17;;;;;;;4.80;2.30;;;21.20;99.90;;;;;;5068241;28;20192;-65
2021/07/28 13:00:46;;;;;;;2.53;1.97;;;21.40;99.90;;;;;;5077655;28;20204;-65